sensor_id;sensor_type;location;lat;lon;timestamp;P1;durP1;ratioP1;P2;durP2;ratioP2
61389;SDS011;47260;48.274;19.814;2023-05-10T00:00:59;6.22;;;4.78;;
61389;SDS011;47260;48.274;19.814;2023-05-10T00:02:31;5.97;;;5.10;;
61389;SDS011;47260;48.274;19.814;2023-05-10T00:04:01;6.32;;;4.90;;
61389;SDS011;47260;48.274;19.814;2023-05-10T00:05:33;6.60;;;5.00;;
61389;SDS011;47260;48.274;19.814;2023-05-10T00:07:06;7.05;;;5.03;;
61389;SDS011;47260;48.274;19.814;2023-05-10T00:08:38;8.05;;;4.82;;
61389;SDS011;47260;48.274;19.814;2023-05-10T00:10:10;6.63;;;5.75;;
61389;SDS011;47260;48.274;19.814;2023-05-10T00:11:42;10.45;;;6.00;;
61389;SDS011;47260;48.274;19.814;2023-05-10T00:13:14;8.20;;;5.15;;
61389;SDS011;47260;48.274;19.814;2023-05-10T00:14:46;7.68;;;5.45;;
61389;SDS011;47260;48.274;19.814;2023-05-10T00:16:17;7.20;;;4.95;;
61389;SDS011;47260;48.274;19.814;2023-05-10T00:17:49;8.45;;;5.00;;
61389;SDS011;47260;48.274;19.814;2023-05-10T00:19:21;6.78;;;5.50;;
61389;SDS011;47260;48.274;19.814;2023-05-10T00:20:53;8.70;;;5.53;;
61389;SDS011;47260;48.274;19.814;2023-05-10T00:22:25;7.75;;;5.50;;
61389;SDS011;47260;48.274;19.814;2023-05-10T00:23:57;9.88;;;6.00;;
61389;SDS011;47260;48.274;19.814;2023-05-10T00:25:29;8.98;;;5.20;;
61389;SDS011;47260;48.274;19.814;2023-05-10T00:27:01;5.50;;;4.95;;
61389;SDS011;47260;48.274;19.814;2023-05-10T00:28:34;8.15;;;5.28;;
61389;SDS011;47260;48.274;19.814;2023-05-10T00:30:05;9.00;;;5.15;;
61389;SDS011;47260;48.274;19.814;2023-05-10T00:31:39;8.45;;;5.50;;
61389;SDS011;47260;48.274;19.814;2023-05-10T00:33:10;12.52;;;5.03;;
61389;SDS011;47260;48.274;19.814;2023-05-10T00:34:41;6.68;;;4.90;;
61389;SDS011;47260;48.274;19.814;2023-05-10T00:36:13;6.95;;;4.68;;
61389;SDS011;47260;48.274;19.814;2023-05-10T00:37:47;7.75;;;4.68;;
61389;SDS011;47260;48.274;19.814;2023-05-10T00:39:18;8.75;;;4.90;;
61389;SDS011;47260;48.274;19.814;2023-05-10T00:40:50;8.60;;;5.53;;
61389;SDS011;47260;48.274;19.814;2023-05-10T00:42:29;6.22;;;5.20;;
61389;SDS011;47260;48.274;19.814;2023-05-10T00:44:00;7.53;;;5.20;;
61389;SDS011;47260;48.274;19.814;2023-05-10T00:45:33;8.85;;;5.72;;
61389;SDS011;47260;48.274;19.814;2023-05-10T00:47:07;7.15;;;5.72;;
61389;SDS011;47260;48.274;19.814;2023-05-10T00:48:39;6.75;;;5.28;;
61389;SDS011;47260;48.274;19.814;2023-05-10T00:50:11;8.32;;;5.28;;
61389;SDS011;47260;48.274;19.814;2023-05-10T00:51:42;7.85;;;4.40;;
61389;SDS011;47260;48.274;19.814;2023-05-10T00:53:16;6.93;;;4.97;;
61389;SDS011;47260;48.274;19.814;2023-05-10T00:54:48;6.80;;;5.18;;
61389;SDS011;47260;48.274;19.814;2023-05-10T00:56:20;7.55;;;4.88;;
61389;SDS011;47260;48.274;19.814;2023-05-10T00:57:54;6.53;;;5.32;;
61389;SDS011;47260;48.274;19.814;2023-05-10T00:59:27;7.32;;;4.97;;
61389;SDS011;47260;48.274;19.814;2023-05-10T01:00:58;8.07;;;5.20;;
61389;SDS011;47260;48.274;19.814;2023-05-10T01:02:33;6.00;;;4.53;;
61389;SDS011;47260;48.274;19.814;2023-05-10T01:04:05;6.35;;;4.57;;
61389;SDS011;47260;48.274;19.814;2023-05-10T01:05:36;5.88;;;4.70;;
61389;SDS011;47260;48.274;19.814;2023-05-10T01:07:08;6.63;;;5.10;;
61389;SDS011;47260;48.274;19.814;2023-05-10T01:08:41;7.60;;;5.30;;
61389;SDS011;47260;48.274;19.814;2023-05-10T01:10:13;7.50;;;4.70;;
61389;SDS011;47260;48.274;19.814;2023-05-10T01:11:44;5.85;;;4.68;;
61389;SDS011;47260;48.274;19.814;2023-05-10T01:13:17;6.18;;;4.93;;
61389;SDS011;47260;48.274;19.814;2023-05-10T01:14:54;7.82;;;4.97;;
61389;SDS011;47260;48.274;19.814;2023-05-10T01:16:26;8.73;;;5.35;;
61389;SDS011;47260;48.274;19.814;2023-05-10T01:17:59;6.85;;;4.65;;
61389;SDS011;47260;48.274;19.814;2023-05-10T01:19:32;7.40;;;5.40;;
61389;SDS011;47260;48.274;19.814;2023-05-10T01:21:11;7.53;;;5.00;;
61389;SDS011;47260;48.274;19.814;2023-05-10T01:25:04;6.93;;;4.85;;
61389;SDS011;47260;48.274;19.814;2023-05-10T01:27:13;7.88;;;5.32;;
61389;SDS011;47260;48.274;19.814;2023-05-10T01:28:57;8.32;;;5.07;;
61389;SDS011;47260;48.274;19.814;2023-05-10T01:30:50;9.07;;;5.50;;
61389;SDS011;47260;48.274;19.814;2023-05-10T01:32:37;7.80;;;4.90;;
61389;SDS011;47260;48.274;19.814;2023-05-10T01:34:19;8.57;;;6.32;;
61389;SDS011;47260;48.274;19.814;2023-05-10T01:35:55;6.50;;;5.22;;
61389;SDS011;47260;48.274;19.814;2023-05-10T01:37:37;7.80;;;5.10;;
61389;SDS011;47260;48.274;19.814;2023-05-10T01:39:15;9.20;;;5.45;;
61389;SDS011;47260;48.274;19.814;2023-05-10T01:40:53;5.68;;;4.53;;
61389;SDS011;47260;48.274;19.814;2023-05-10T01:42:36;9.45;;;5.43;;
61389;SDS011;47260;48.274;19.814;2023-05-10T01:44:14;8.20;;;4.85;;
61389;SDS011;47260;48.274;19.814;2023-05-10T01:45:50;7.72;;;4.90;;
61389;SDS011;47260;48.274;19.814;2023-05-10T01:47:31;7.30;;;4.40;;
61389;SDS011;47260;48.274;19.814;2023-05-10T01:49:10;8.63;;;5.30;;
61389;SDS011;47260;48.274;19.814;2023-05-10T01:50:52;7.38;;;5.05;;
61389;SDS011;47260;48.274;19.814;2023-05-10T01:52:25;8.68;;;5.00;;
61389;SDS011;47260;48.274;19.814;2023-05-10T01:54:02;6.00;;;4.55;;
61389;SDS011;47260;48.274;19.814;2023-05-10T01:55:39;7.18;;;4.90;;
61389;SDS011;47260;48.274;19.814;2023-05-10T01:57:15;6.60;;;4.80;;
61389;SDS011;47260;48.274;19.814;2023-05-10T01:58:50;8.60;;;4.60;;
61389;SDS011;47260;48.274;19.814;2023-05-10T02:00:24;7.10;;;4.90;;
61389;SDS011;47260;48.274;19.814;2023-05-10T02:01:57;5.75;;;4.50;;
61389;SDS011;47260;48.274;19.814;2023-05-10T02:03:31;5.90;;;4.63;;
61389;SDS011;47260;48.274;19.814;2023-05-10T02:05:05;7.10;;;4.90;;
61389;SDS011;47260;48.274;19.814;2023-05-10T02:06:38;7.28;;;5.20;;
61389;SDS011;47260;48.274;19.814;2023-05-10T02:08:10;5.22;;;4.50;;
61389;SDS011;47260;48.274;19.814;2023-05-10T02:09:44;6.32;;;4.28;;
61389;SDS011;47260;48.274;19.814;2023-05-10T02:11:17;7.80;;;4.68;;
61389;SDS011;47260;48.274;19.814;2023-05-10T02:12:51;8.77;;;4.57;;
61389;SDS011;47260;48.274;19.814;2023-05-10T02:14:25;7.65;;;4.68;;
61389;SDS011;47260;48.274;19.814;2023-05-10T02:15:57;5.03;;;4.45;;
61389;SDS011;47260;48.274;19.814;2023-05-10T02:17:30;8.52;;;5.70;;
61389;SDS011;47260;48.274;19.814;2023-05-10T02:19:04;5.72;;;4.15;;
61389;SDS011;47260;48.274;19.814;2023-05-10T02:20:40;7.53;;;5.07;;
61389;SDS011;47260;48.274;19.814;2023-05-10T02:22:12;8.90;;;5.72;;
61389;SDS011;47260;48.274;19.814;2023-05-10T02:23:45;7.57;;;5.68;;
61389;SDS011;47260;48.274;19.814;2023-05-10T02:25:19;7.82;;;5.35;;
61389;SDS011;47260;48.274;19.814;2023-05-10T02:26:53;8.90;;;5.97;;
61389;SDS011;47260;48.274;19.814;2023-05-10T02:28:27;7.45;;;5.15;;
61389;SDS011;47260;48.274;19.814;2023-05-10T02:30:00;8.80;;;5.60;;
61389;SDS011;47260;48.274;19.814;2023-05-10T02:31:32;10.60;;;5.28;;
61389;SDS011;47260;48.274;19.814;2023-05-10T02:33:04;8.05;;;5.38;;
61389;SDS011;47260;48.274;19.814;2023-05-10T02:34:36;9.35;;;5.68;;
61389;SDS011;47260;48.274;19.814;2023-05-10T02:36:09;7.45;;;5.47;;
61389;SDS011;47260;48.274;19.814;2023-05-10T02:37:43;8.75;;;5.53;;
61389;SDS011;47260;48.274;19.814;2023-05-10T02:39:15;9.20;;;6.53;;
61389;SDS011;47260;48.274;19.814;2023-05-10T02:40:50;9.85;;;5.93;;
61389;SDS011;47260;48.274;19.814;2023-05-10T02:42:22;8.23;;;5.97;;
61389;SDS011;47260;48.274;19.814;2023-05-10T02:43:57;7.43;;;5.32;;
61389;SDS011;47260;48.274;19.814;2023-05-10T02:45:32;6.90;;;5.85;;
61389;SDS011;47260;48.274;19.814;2023-05-10T02:47:09;8.50;;;5.82;;
61389;SDS011;47260;48.274;19.814;2023-05-10T02:48:40;7.93;;;4.82;;
61389;SDS011;47260;48.274;19.814;2023-05-10T02:50:12;7.43;;;5.30;;
61389;SDS011;47260;48.274;19.814;2023-05-10T02:51:48;8.10;;;6.00;;
61389;SDS011;47260;48.274;19.814;2023-05-10T02:53:29;7.78;;;6.03;;
61389;SDS011;47260;48.274;19.814;2023-05-10T02:55:03;7.30;;;5.32;;
61389;SDS011;47260;48.274;19.814;2023-05-10T02:56:39;9.00;;;6.18;;
61389;SDS011;47260;48.274;19.814;2023-05-10T02:58:13;11.90;;;7.68;;
61389;SDS011;47260;48.274;19.814;2023-05-10T02:59:45;15.13;;;9.18;;
61389;SDS011;47260;48.274;19.814;2023-05-10T03:01:16;12.93;;;7.03;;
61389;SDS011;47260;48.274;19.814;2023-05-10T03:02:48;9.02;;;5.72;;
61389;SDS011;47260;48.274;19.814;2023-05-10T03:04:20;9.27;;;5.75;;
61389;SDS011;47260;48.274;19.814;2023-05-10T03:05:52;7.50;;;5.60;;
61389;SDS011;47260;48.274;19.814;2023-05-10T03:07:27;7.20;;;5.13;;
61389;SDS011;47260;48.274;19.814;2023-05-10T03:09:00;9.02;;;6.05;;
61389;SDS011;47260;48.274;19.814;2023-05-10T03:10:33;8.75;;;6.57;;
61389;SDS011;47260;48.274;19.814;2023-05-10T03:12:14;9.32;;;5.70;;
61389;SDS011;47260;48.274;19.814;2023-05-10T03:13:53;12.82;;;6.80;;
61389;SDS011;47260;48.274;19.814;2023-05-10T03:15:42;9.45;;;6.50;;
61389;SDS011;47260;48.274;19.814;2023-05-10T03:17:23;12.63;;;6.63;;
61389;SDS011;47260;48.274;19.814;2023-05-10T03:19:06;10.80;;;7.00;;
61389;SDS011;47260;48.274;19.814;2023-05-10T03:20:41;9.85;;;6.50;;
61389;SDS011;47260;48.274;19.814;2023-05-10T03:22:17;9.23;;;6.30;;
61389;SDS011;47260;48.274;19.814;2023-05-10T03:23:56;9.13;;;6.30;;
61389;SDS011;47260;48.274;19.814;2023-05-10T03:25:31;9.77;;;6.80;;
61389;SDS011;47260;48.274;19.814;2023-05-10T03:27:04;10.68;;;7.05;;
61389;SDS011;47260;48.274;19.814;2023-05-10T03:28:38;10.75;;;6.63;;
61389;SDS011;47260;48.274;19.814;2023-05-10T03:30:11;14.52;;;7.03;;
61389;SDS011;47260;48.274;19.814;2023-05-10T03:31:44;14.75;;;7.07;;
61389;SDS011;47260;48.274;19.814;2023-05-10T03:33:15;12.95;;;7.78;;
61389;SDS011;47260;48.274;19.814;2023-05-10T03:34:49;15.63;;;7.00;;
61389;SDS011;47260;48.274;19.814;2023-05-10T03:36:20;10.52;;;6.50;;
61389;SDS011;47260;48.274;19.814;2023-05-10T03:37:52;9.82;;;6.88;;
61389;SDS011;47260;48.274;19.814;2023-05-10T03:39:25;12.23;;;7.47;;
61389;SDS011;47260;48.274;19.814;2023-05-10T03:41:00;11.35;;;6.60;;
61389;SDS011;47260;48.274;19.814;2023-05-10T03:42:33;10.80;;;7.15;;
61389;SDS011;47260;48.274;19.814;2023-05-10T03:44:04;11.57;;;6.68;;
61389;SDS011;47260;48.274;19.814;2023-05-10T03:45:35;9.23;;;6.68;;
61389;SDS011;47260;48.274;19.814;2023-05-10T03:47:07;12.40;;;6.90;;
61389;SDS011;47260;48.274;19.814;2023-05-10T03:48:39;13.15;;;7.63;;
61389;SDS011;47260;48.274;19.814;2023-05-10T03:50:11;9.82;;;6.75;;
61389;SDS011;47260;48.274;19.814;2023-05-10T03:51:42;10.40;;;6.35;;
61389;SDS011;47260;48.274;19.814;2023-05-10T03:53:14;9.77;;;7.07;;
61389;SDS011;47260;48.274;19.814;2023-05-10T03:54:46;9.02;;;6.35;;
61389;SDS011;47260;48.274;19.814;2023-05-10T03:56:18;9.95;;;6.57;;
61389;SDS011;47260;48.274;19.814;2023-05-10T03:57:51;8.57;;;6.13;;
61389;SDS011;47260;48.274;19.814;2023-05-10T03:59:25;8.68;;;5.43;;
61389;SDS011;47260;48.274;19.814;2023-05-10T04:00:57;7.68;;;5.47;;
61389;SDS011;47260;48.274;19.814;2023-05-10T04:02:29;8.30;;;5.55;;
61389;SDS011;47260;48.274;19.814;2023-05-10T04:04:00;8.77;;;5.30;;
61389;SDS011;47260;48.274;19.814;2023-05-10T04:05:35;6.15;;;5.30;;
61389;SDS011;47260;48.274;19.814;2023-05-10T04:07:06;8.45;;;5.43;;
61389;SDS011;47260;48.274;19.814;2023-05-10T04:08:40;7.50;;;5.88;;
61389;SDS011;47260;48.274;19.814;2023-05-10T04:10:12;7.10;;;4.80;;
61389;SDS011;47260;48.274;19.814;2023-05-10T04:11:44;7.75;;;5.05;;
61389;SDS011;47260;48.274;19.814;2023-05-10T04:13:16;9.27;;;5.28;;
61389;SDS011;47260;48.274;19.814;2023-05-10T04:14:48;8.02;;;5.30;;
61389;SDS011;47260;48.274;19.814;2023-05-10T04:16:20;6.40;;;5.47;;
61389;SDS011;47260;48.274;19.814;2023-05-10T04:17:51;9.05;;;5.88;;
61389;SDS011;47260;48.274;19.814;2023-05-10T04:19:23;7.78;;;4.90;;
61389;SDS011;47260;48.274;19.814;2023-05-10T04:20:55;5.90;;;5.07;;
61389;SDS011;47260;48.274;19.814;2023-05-10T04:22:26;7.03;;;5.32;;
61389;SDS011;47260;48.274;19.814;2023-05-10T04:23:59;8.20;;;4.60;;
61389;SDS011;47260;48.274;19.814;2023-05-10T04:25:33;8.48;;;5.05;;
61389;SDS011;47260;48.274;19.814;2023-05-10T04:27:05;7.82;;;4.60;;
61389;SDS011;47260;48.274;19.814;2023-05-10T04:28:37;7.72;;;4.47;;
61389;SDS011;47260;48.274;19.814;2023-05-10T04:30:09;6.32;;;4.18;;
61389;SDS011;47260;48.274;19.814;2023-05-10T04:31:40;5.13;;;4.40;;
61389;SDS011;47260;48.274;19.814;2023-05-10T04:33:12;5.93;;;4.80;;
61389;SDS011;47260;48.274;19.814;2023-05-10T04:34:44;6.38;;;4.68;;
61389;SDS011;47260;48.274;19.814;2023-05-10T04:36:15;6.78;;;4.68;;
61389;SDS011;47260;48.274;19.814;2023-05-10T04:37:47;6.97;;;5.43;;
61389;SDS011;47260;48.274;19.814;2023-05-10T04:39:19;7.05;;;4.90;;
61389;SDS011;47260;48.274;19.814;2023-05-10T04:40:52;7.72;;;5.07;;
61389;SDS011;47260;48.274;19.814;2023-05-10T04:42:23;5.97;;;4.95;;
61389;SDS011;47260;48.274;19.814;2023-05-10T04:43:55;5.97;;;4.93;;
61389;SDS011;47260;48.274;19.814;2023-05-10T04:45:27;6.90;;;4.05;;
61389;SDS011;47260;48.274;19.814;2023-05-10T04:46:59;5.28;;;4.60;;
61389;SDS011;47260;48.274;19.814;2023-05-10T04:48:32;7.45;;;4.38;;
61389;SDS011;47260;48.274;19.814;2023-05-10T04:50:04;5.93;;;3.75;;
61389;SDS011;47260;48.274;19.814;2023-05-10T04:51:37;8.25;;;4.72;;
61389;SDS011;47260;48.274;19.814;2023-05-10T04:53:09;4.88;;;4.03;;
61389;SDS011;47260;48.274;19.814;2023-05-10T04:54:41;7.78;;;4.55;;
61389;SDS011;47260;48.274;19.814;2023-05-10T04:56:14;5.43;;;4.22;;
61389;SDS011;47260;48.274;19.814;2023-05-10T04:57:45;6.90;;;4.18;;
61389;SDS011;47260;48.274;19.814;2023-05-10T04:59:16;5.68;;;4.55;;
61389;SDS011;47260;48.274;19.814;2023-05-10T05:00:48;5.88;;;3.90;;
61389;SDS011;47260;48.274;19.814;2023-05-10T05:02:20;8.57;;;4.50;;
61389;SDS011;47260;48.274;19.814;2023-05-10T05:03:52;6.05;;;4.50;;
61389;SDS011;47260;48.274;19.814;2023-05-10T05:05:24;7.13;;;4.50;;
61389;SDS011;47260;48.274;19.814;2023-05-10T05:06:55;7.63;;;4.35;;
61389;SDS011;47260;48.274;19.814;2023-05-10T05:08:27;8.43;;;4.82;;
61389;SDS011;47260;48.274;19.814;2023-05-10T05:09:58;4.88;;;4.10;;
61389;SDS011;47260;48.274;19.814;2023-05-10T05:11:31;7.22;;;4.90;;
61389;SDS011;47260;48.274;19.814;2023-05-10T05:13:03;5.05;;;4.43;;
61389;SDS011;47260;48.274;19.814;2023-05-10T05:14:35;8.00;;;4.78;;
61389;SDS011;47260;48.274;19.814;2023-05-10T05:16:07;4.85;;;4.10;;
61389;SDS011;47260;48.274;19.814;2023-05-10T05:17:39;5.18;;;4.40;;
61389;SDS011;47260;48.274;19.814;2023-05-10T05:19:10;5.72;;;4.32;;
61389;SDS011;47260;48.274;19.814;2023-05-10T05:20:42;5.47;;;4.28;;
61389;SDS011;47260;48.274;19.814;2023-05-10T05:22:14;5.53;;;3.83;;
61389;SDS011;47260;48.274;19.814;2023-05-10T05:23:46;7.05;;;3.95;;
61389;SDS011;47260;48.274;19.814;2023-05-10T05:25:18;4.90;;;3.85;;
61389;SDS011;47260;48.274;19.814;2023-05-10T05:26:51;6.13;;;4.05;;
61389;SDS011;47260;48.274;19.814;2023-05-10T05:28:23;5.55;;;4.00;;
61389;SDS011;47260;48.274;19.814;2023-05-10T05:29:55;5.75;;;4.63;;
61389;SDS011;47260;48.274;19.814;2023-05-10T05:31:27;5.60;;;3.78;;
61389;SDS011;47260;48.274;19.814;2023-05-10T05:32:59;6.00;;;4.60;;
61389;SDS011;47260;48.274;19.814;2023-05-10T05:34:31;9.48;;;4.38;;
61389;SDS011;47260;48.274;19.814;2023-05-10T05:36:04;5.10;;;3.97;;
61389;SDS011;47260;48.274;19.814;2023-05-10T05:37:36;9.85;;;6.10;;
61389;SDS011;47260;48.274;19.814;2023-05-10T05:39:08;9.00;;;4.40;;
61389;SDS011;47260;48.274;19.814;2023-05-10T05:40:40;7.93;;;5.50;;
61389;SDS011;47260;48.274;19.814;2023-05-10T05:42:13;7.43;;;4.32;;
61389;SDS011;47260;48.274;19.814;2023-05-10T05:43:46;7.15;;;4.53;;
61389;SDS011;47260;48.274;19.814;2023-05-10T05:45:18;6.03;;;4.35;;
61389;SDS011;47260;48.274;19.814;2023-05-10T05:46:51;8.88;;;6.38;;
61389;SDS011;47260;48.274;19.814;2023-05-10T05:48:23;5.65;;;3.90;;
61389;SDS011;47260;48.274;19.814;2023-05-10T05:49:55;5.82;;;4.63;;
61389;SDS011;47260;48.274;19.814;2023-05-10T05:51:26;4.88;;;4.05;;
61389;SDS011;47260;48.274;19.814;2023-05-10T05:52:58;5.55;;;4.47;;
61389;SDS011;47260;48.274;19.814;2023-05-10T05:54:30;6.00;;;4.20;;
61389;SDS011;47260;48.274;19.814;2023-05-10T05:56:03;7.90;;;4.45;;
61389;SDS011;47260;48.274;19.814;2023-05-10T05:57:36;5.68;;;4.20;;
61389;SDS011;47260;48.274;19.814;2023-05-10T05:59:08;5.07;;;4.05;;
61389;SDS011;47260;48.274;19.814;2023-05-10T06:00:40;7.63;;;4.60;;
61389;SDS011;47260;48.274;19.814;2023-05-10T06:02:12;4.72;;;3.92;;
61389;SDS011;47260;48.274;19.814;2023-05-10T06:03:44;5.63;;;4.32;;
61389;SDS011;47260;48.274;19.814;2023-05-10T06:05:15;5.00;;;4.50;;
61389;SDS011;47260;48.274;19.814;2023-05-10T06:06:47;5.43;;;4.25;;
61389;SDS011;47260;48.274;19.814;2023-05-10T06:08:19;5.20;;;4.10;;
61389;SDS011;47260;48.274;19.814;2023-05-10T06:09:51;7.18;;;4.63;;
61389;SDS011;47260;48.274;19.814;2023-05-10T06:11:23;7.22;;;4.53;;
61389;SDS011;47260;48.274;19.814;2023-05-10T06:12:57;7.15;;;4.85;;
61389;SDS011;47260;48.274;19.814;2023-05-10T06:14:28;5.93;;;4.63;;
61389;SDS011;47260;48.274;19.814;2023-05-10T06:16:00;5.05;;;4.28;;
61389;SDS011;47260;48.274;19.814;2023-05-10T06:17:32;6.85;;;4.20;;
61389;SDS011;47260;48.274;19.814;2023-05-10T06:19:04;5.35;;;4.20;;
61389;SDS011;47260;48.274;19.814;2023-05-10T06:20:36;5.82;;;4.13;;
61389;SDS011;47260;48.274;19.814;2023-05-10T06:22:08;6.80;;;4.50;;
61389;SDS011;47260;48.274;19.814;2023-05-10T06:23:40;7.82;;;4.32;;
61389;SDS011;47260;48.274;19.814;2023-05-10T06:25:11;5.55;;;4.63;;
61389;SDS011;47260;48.274;19.814;2023-05-10T06:26:44;4.72;;;3.92;;
61389;SDS011;47260;48.274;19.814;2023-05-10T06:28:17;6.43;;;4.28;;
61389;SDS011;47260;48.274;19.814;2023-05-10T06:29:49;5.88;;;4.28;;
61389;SDS011;47260;48.274;19.814;2023-05-10T06:31:21;5.93;;;4.57;;
61389;SDS011;47260;48.274;19.814;2023-05-10T06:32:53;5.32;;;4.78;;
61389;SDS011;47260;48.274;19.814;2023-05-10T06:34:25;6.85;;;4.70;;
61389;SDS011;47260;48.274;19.814;2023-05-10T06:35:56;6.13;;;4.72;;
61389;SDS011;47260;48.274;19.814;2023-05-10T06:37:28;6.47;;;4.97;;
61389;SDS011;47260;48.274;19.814;2023-05-10T06:39:00;6.25;;;4.95;;
61389;SDS011;47260;48.274;19.814;2023-05-10T06:40:32;7.68;;;5.07;;
61389;SDS011;47260;48.274;19.814;2023-05-10T06:42:04;7.40;;;4.85;;
61389;SDS011;47260;48.274;19.814;2023-05-10T06:43:38;7.10;;;5.18;;
61389;SDS011;47260;48.274;19.814;2023-05-10T06:45:11;8.55;;;5.80;;
61389;SDS011;47260;48.274;19.814;2023-05-10T06:46:44;8.52;;;4.95;;
61389;SDS011;47260;48.274;19.814;2023-05-10T06:48:16;6.90;;;4.95;;
61389;SDS011;47260;48.274;19.814;2023-05-10T06:49:47;6.97;;;4.53;;
61389;SDS011;47260;48.274;19.814;2023-05-10T06:51:19;7.20;;;4.90;;
61389;SDS011;47260;48.274;19.814;2023-05-10T06:52:51;8.63;;;5.38;;
61389;SDS011;47260;48.274;19.814;2023-05-10T06:54:23;5.32;;;4.47;;
61389;SDS011;47260;48.274;19.814;2023-05-10T06:55:55;8.13;;;4.75;;
61389;SDS011;47260;48.274;19.814;2023-05-10T06:57:27;9.30;;;5.40;;
61389;SDS011;47260;48.274;19.814;2023-05-10T06:59:00;6.32;;;5.35;;
61389;SDS011;47260;48.274;19.814;2023-05-10T07:00:32;6.72;;;4.70;;
61389;SDS011;47260;48.274;19.814;2023-05-10T07:02:04;5.25;;;4.55;;
61389;SDS011;47260;48.274;19.814;2023-05-10T07:03:36;6.05;;;4.40;;
61389;SDS011;47260;48.274;19.814;2023-05-10T07:05:08;7.63;;;5.20;;
61389;SDS011;47260;48.274;19.814;2023-05-10T07:06:40;7.00;;;4.50;;
61389;SDS011;47260;48.274;19.814;2023-05-10T07:08:12;7.82;;;4.70;;
61389;SDS011;47260;48.274;19.814;2023-05-10T07:09:44;6.63;;;4.93;;
61389;SDS011;47260;48.274;19.814;2023-05-10T07:11:17;5.75;;;4.75;;
61389;SDS011;47260;48.274;19.814;2023-05-10T07:12:48;11.52;;;7.35;;
61389;SDS011;47260;48.274;19.814;2023-05-10T07:14:22;8.23;;;5.25;;
61389;SDS011;47260;48.274;19.814;2023-05-10T07:15:53;7.50;;;4.20;;
61389;SDS011;47260;48.274;19.814;2023-05-10T07:17:25;5.90;;;4.40;;
61389;SDS011;47260;48.274;19.814;2023-05-10T07:18:57;7.32;;;5.18;;
61389;SDS011;47260;48.274;19.814;2023-05-10T07:20:29;7.13;;;5.47;;
61389;SDS011;47260;48.274;19.814;2023-05-10T07:22:01;7.07;;;5.50;;
61389;SDS011;47260;48.274;19.814;2023-05-10T07:23:33;6.72;;;5.18;;
61389;SDS011;47260;48.274;19.814;2023-05-10T07:25:05;8.00;;;5.47;;
61389;SDS011;47260;48.274;19.814;2023-05-10T07:26:37;6.75;;;4.97;;
61389;SDS011;47260;48.274;19.814;2023-05-10T07:28:09;5.65;;;4.60;;
61389;SDS011;47260;48.274;19.814;2023-05-10T07:29:42;7.95;;;5.97;;
61389;SDS011;47260;48.274;19.814;2023-05-10T07:31:14;7.63;;;4.85;;
61389;SDS011;47260;48.274;19.814;2023-05-10T07:32:46;6.32;;;5.35;;
61389;SDS011;47260;48.274;19.814;2023-05-10T07:34:18;8.90;;;5.38;;
61389;SDS011;47260;48.274;19.814;2023-05-10T07:35:50;8.38;;;5.05;;
61389;SDS011;47260;48.274;19.814;2023-05-10T07:37:21;7.57;;;5.00;;
61389;SDS011;47260;48.274;19.814;2023-05-10T07:38:53;8.05;;;5.63;;
61389;SDS011;47260;48.274;19.814;2023-05-10T07:40:26;7.10;;;5.25;;
61389;SDS011;47260;48.274;19.814;2023-05-10T07:41:59;6.00;;;4.22;;
61389;SDS011;47260;48.274;19.814;2023-05-10T07:43:30;6.43;;;4.93;;
61389;SDS011;47260;48.274;19.814;2023-05-10T07:45:04;6.43;;;4.72;;
61389;SDS011;47260;48.274;19.814;2023-05-10T07:46:37;5.32;;;4.47;;
61389;SDS011;47260;48.274;19.814;2023-05-10T07:48:09;7.30;;;4.93;;
61389;SDS011;47260;48.274;19.814;2023-05-10T07:49:41;7.47;;;5.82;;
61389;SDS011;47260;48.274;19.814;2023-05-10T07:51:13;5.57;;;4.75;;
61389;SDS011;47260;48.274;19.814;2023-05-10T07:52:45;7.50;;;5.10;;
61389;SDS011;47260;48.274;19.814;2023-05-10T07:54:17;7.07;;;5.38;;
61389;SDS011;47260;48.274;19.814;2023-05-10T07:55:50;8.25;;;5.63;;
61389;SDS011;47260;48.274;19.814;2023-05-10T07:57:22;7.72;;;6.45;;
61389;SDS011;47260;48.274;19.814;2023-05-10T07:58:54;12.48;;;5.15;;
61389;SDS011;47260;48.274;19.814;2023-05-10T08:00:27;6.72;;;4.60;;
61389;SDS011;47260;48.274;19.814;2023-05-10T08:01:59;7.72;;;5.20;;
61389;SDS011;47260;48.274;19.814;2023-05-10T08:03:30;10.32;;;5.18;;
61389;SDS011;47260;48.274;19.814;2023-05-10T08:05:02;6.80;;;5.18;;
61389;SDS011;47260;48.274;19.814;2023-05-10T08:06:35;5.93;;;4.95;;
61389;SDS011;47260;48.274;19.814;2023-05-10T08:08:07;5.05;;;4.47;;
61389;SDS011;47260;48.274;19.814;2023-05-10T08:09:39;5.97;;;4.38;;
61389;SDS011;47260;48.274;19.814;2023-05-10T08:11:11;9.60;;;4.93;;
61389;SDS011;47260;48.274;19.814;2023-05-10T08:12:43;5.03;;;4.47;;
61389;SDS011;47260;48.274;19.814;2023-05-10T08:14:15;6.30;;;4.88;;
61389;SDS011;47260;48.274;19.814;2023-05-10T08:15:48;6.82;;;4.95;;
61389;SDS011;47260;48.274;19.814;2023-05-10T08:17:22;5.45;;;4.50;;
61389;SDS011;47260;48.274;19.814;2023-05-10T08:18:54;8.25;;;4.88;;
61389;SDS011;47260;48.274;19.814;2023-05-10T08:20:26;8.82;;;5.22;;
61389;SDS011;47260;48.274;19.814;2023-05-10T08:21:58;7.18;;;5.07;;
61389;SDS011;47260;48.274;19.814;2023-05-10T08:23:30;8.55;;;5.10;;
61389;SDS011;47260;48.274;19.814;2023-05-10T08:25:02;6.45;;;4.93;;
61389;SDS011;47260;48.274;19.814;2023-05-10T08:26:34;6.35;;;5.75;;
61389;SDS011;47260;48.274;19.814;2023-05-10T08:28:06;6.72;;;4.65;;
61389;SDS011;47260;48.274;19.814;2023-05-10T08:29:38;8.80;;;5.43;;
61389;SDS011;47260;48.274;19.814;2023-05-10T08:31:11;10.30;;;4.88;;
61389;SDS011;47260;48.274;19.814;2023-05-10T08:32:43;6.38;;;4.63;;
61389;SDS011;47260;48.274;19.814;2023-05-10T08:34:15;12.73;;;5.97;;
61389;SDS011;47260;48.274;19.814;2023-05-10T08:35:46;6.10;;;5.45;;
61389;SDS011;47260;48.274;19.814;2023-05-10T08:37:18;9.45;;;5.45;;
61389;SDS011;47260;48.274;19.814;2023-05-10T08:38:50;5.20;;;4.45;;
61389;SDS011;47260;48.274;19.814;2023-05-10T08:40:23;6.45;;;4.90;;
61389;SDS011;47260;48.274;19.814;2023-05-10T08:41:57;7.28;;;4.97;;
61389;SDS011;47260;48.274;19.814;2023-05-10T08:43:32;7.47;;;5.50;;
61389;SDS011;47260;48.274;19.814;2023-05-10T08:45:07;5.28;;;4.28;;
61389;SDS011;47260;48.274;19.814;2023-05-10T08:46:42;7.82;;;5.05;;
61389;SDS011;47260;48.274;19.814;2023-05-10T08:48:17;9.52;;;5.25;;
61389;SDS011;47260;48.274;19.814;2023-05-10T08:49:49;6.25;;;4.93;;
61389;SDS011;47260;48.274;19.814;2023-05-10T08:51:23;7.70;;;5.13;;
61389;SDS011;47260;48.274;19.814;2023-05-10T08:52:57;7.35;;;5.00;;
61389;SDS011;47260;48.274;19.814;2023-05-10T08:54:31;9.48;;;5.82;;
61389;SDS011;47260;48.274;19.814;2023-05-10T08:56:04;6.50;;;5.68;;
61389;SDS011;47260;48.274;19.814;2023-05-10T08:57:37;9.25;;;4.97;;
61389;SDS011;47260;48.274;19.814;2023-05-10T08:59:09;8.93;;;5.68;;
61389;SDS011;47260;48.274;19.814;2023-05-10T09:00:42;8.38;;;5.13;;
61389;SDS011;47260;48.274;19.814;2023-05-10T09:02:16;7.30;;;4.63;;
61389;SDS011;47260;48.274;19.814;2023-05-10T09:03:49;7.40;;;5.20;;
61389;SDS011;47260;48.274;19.814;2023-05-10T09:05:22;5.95;;;4.78;;
61389;SDS011;47260;48.274;19.814;2023-05-10T09:06:53;6.32;;;5.38;;
61389;SDS011;47260;48.274;19.814;2023-05-10T09:08:26;6.60;;;5.03;;
61389;SDS011;47260;48.274;19.814;2023-05-10T09:09:58;5.85;;;4.72;;
61389;SDS011;47260;48.274;19.814;2023-05-10T09:11:30;6.28;;;4.60;;
61389;SDS011;47260;48.274;19.814;2023-05-10T09:13:02;7.05;;;4.70;;
61389;SDS011;47260;48.274;19.814;2023-05-10T09:14:34;6.32;;;4.80;;